sensor_id;sensor_type;location;lat;lon;timestamp;P1;durP1;ratioP1;P2;durP2;ratioP2
60492;SDS011;46341;51.290;-2.474;2023-05-24T00:01:58;11.60;;;7.47;;
60492;SDS011;46341;51.290;-2.474;2023-05-24T00:04:24;9.90;;;7.50;;
60492;SDS011;46341;51.290;-2.474;2023-05-24T00:06:55;11.70;;;7.85;;
60492;SDS011;46341;51.290;-2.474;2023-05-24T00:09:22;10.75;;;7.90;;
60492;SDS011;46341;51.290;-2.474;2023-05-24T00:11:48;10.45;;;8.02;;
60492;SDS011;46341;51.290;-2.474;2023-05-24T00:14:15;9.82;;;7.80;;
60492;SDS011;46341;51.290;-2.474;2023-05-24T00:16:41;9.57;;;8.18;;
60492;SDS011;46341;51.290;-2.474;2023-05-24T00:19:08;9.60;;;7.30;;
60492;SDS011;46341;51.290;-2.474;2023-05-24T00:21:36;12.05;;;8.00;;
60492;SDS011;46341;51.290;-2.474;2023-05-24T00:24:03;10.32;;;8.93;;
60492;SDS011;46341;51.290;-2.474;2023-05-24T00:26:29;10.90;;;8.13;;
60492;SDS011;46341;51.290;-2.474;2023-05-24T00:28:56;11.48;;;9.70;;
60492;SDS011;46341;51.290;-2.474;2023-05-24T00:31:22;10.82;;;8.88;;
60492;SDS011;46341;51.290;-2.474;2023-05-24T00:33:48;10.23;;;7.65;;
60492;SDS011;46341;51.290;-2.474;2023-05-24T00:36:15;9.93;;;8.25;;
60492;SDS011;46341;51.290;-2.474;2023-05-24T00:38:41;10.65;;;7.43;;
60492;SDS011;46341;51.290;-2.474;2023-05-24T00:41:08;11.57;;;7.78;;
60492;SDS011;46341;51.290;-2.474;2023-05-24T00:43:34;9.63;;;7.60;;
60492;SDS011;46341;51.290;-2.474;2023-05-24T00:46:26;9.00;;;7.22;;
60492;SDS011;46341;51.290;-2.474;2023-05-24T00:48:48;9.77;;;7.15;;
60492;SDS011;46341;51.290;-2.474;2023-05-24T00:51:16;8.38;;;7.00;;
60492;SDS011;46341;51.290;-2.474;2023-05-24T00:53:43;8.82;;;7.32;;
60492;SDS011;46341;51.290;-2.474;2023-05-24T00:58:36;11.45;;;9.43;;
60492;SDS011;46341;51.290;-2.474;2023-05-24T01:01:03;12.32;;;9.32;;
60492;SDS011;46341;51.290;-2.474;2023-05-24T01:03:30;10.55;;;8.45;;
60492;SDS011;46341;51.290;-2.474;2023-05-24T01:05:57;10.55;;;8.73;;
60492;SDS011;46341;51.290;-2.474;2023-05-24T01:11:25;9.38;;;8.32;;
60492;SDS011;46341;51.290;-2.474;2023-05-24T01:19:05;11.60;;;9.02;;
60492;SDS011;46341;51.290;-2.474;2023-05-24T01:21:42;12.02;;;9.38;;
60492;SDS011;46341;51.290;-2.474;2023-05-24T01:24:29;14.27;;;9.82;;
60492;SDS011;46341;51.290;-2.474;2023-05-24T01:29:24;13.40;;;9.35;;
60492;SDS011;46341;51.290;-2.474;2023-05-24T01:31:51;10.73;;;9.35;;
60492;SDS011;46341;51.290;-2.474;2023-05-24T01:34:18;9.40;;;8.30;;
60492;SDS011;46341;51.290;-2.474;2023-05-24T01:36:45;10.57;;;8.68;;
60492;SDS011;46341;51.290;-2.474;2023-05-24T01:39:11;9.52;;;8.50;;
60492;SDS011;46341;51.290;-2.474;2023-05-24T01:41:40;9.98;;;8.98;;
60492;SDS011;46341;51.290;-2.474;2023-05-24T01:44:28;10.75;;;9.18;;
60492;SDS011;46341;51.290;-2.474;2023-05-24T01:47:00;9.77;;;8.77;;
60492;SDS011;46341;51.290;-2.474;2023-05-24T01:49:29;9.82;;;8.82;;
60492;SDS011;46341;51.290;-2.474;2023-05-24T01:52:02;10.85;;;8.35;;
60492;SDS011;46341;51.290;-2.474;2023-05-24T01:54:30;10.50;;;9.07;;
60492;SDS011;46341;51.290;-2.474;2023-05-24T01:56:58;11.15;;;8.98;;
60492;SDS011;46341;51.290;-2.474;2023-05-24T01:59:25;10.02;;;8.45;;
60492;SDS011;46341;51.290;-2.474;2023-05-24T02:01:52;11.45;;;9.65;;
60492;SDS011;46341;51.290;-2.474;2023-05-24T02:04:19;11.32;;;8.82;;
60492;SDS011;46341;51.290;-2.474;2023-05-24T02:06:45;14.55;;;10.30;;
60492;SDS011;46341;51.290;-2.474;2023-05-24T02:09:12;11.68;;;10.40;;
60492;SDS011;46341;51.290;-2.474;2023-05-24T02:11:38;13.27;;;10.13;;
60492;SDS011;46341;51.290;-2.474;2023-05-24T02:14:04;10.93;;;9.57;;
60492;SDS011;46341;51.290;-2.474;2023-05-24T02:16:31;11.82;;;9.65;;
60492;SDS011;46341;51.290;-2.474;2023-05-24T02:18:58;11.90;;;10.55;;
60492;SDS011;46341;51.290;-2.474;2023-05-24T02:21:26;11.68;;;10.07;;
60492;SDS011;46341;51.290;-2.474;2023-05-24T02:23:52;15.27;;;12.32;;
60492;SDS011;46341;51.290;-2.474;2023-05-24T02:26:19;14.00;;;11.07;;
60492;SDS011;46341;51.290;-2.474;2023-05-24T02:28:45;13.50;;;11.25;;
60492;SDS011;46341;51.290;-2.474;2023-05-24T02:33:39;15.77;;;12.25;;
60492;SDS011;46341;51.290;-2.474;2023-05-24T02:36:06;14.10;;;12.25;;
60492;SDS011;46341;51.290;-2.474;2023-05-24T02:38:32;13.38;;;12.00;;
60492;SDS011;46341;51.290;-2.474;2023-05-24T02:40:58;12.45;;;11.15;;
60492;SDS011;46341;51.290;-2.474;2023-05-24T02:43:25;13.45;;;11.50;;
60492;SDS011;46341;51.290;-2.474;2023-05-24T02:45:51;12.95;;;11.63;;
60492;SDS011;46341;51.290;-2.474;2023-05-24T02:48:18;13.18;;;11.43;;
60492;SDS011;46341;51.290;-2.474;2023-05-24T02:50:44;12.50;;;11.18;;
60492;SDS011;46341;51.290;-2.474;2023-05-24T02:53:10;11.85;;;10.63;;
60492;SDS011;46341;51.290;-2.474;2023-05-24T02:55:37;12.57;;;11.10;;
60492;SDS011;46341;51.290;-2.474;2023-05-24T02:58:03;11.55;;;10.23;;
60492;SDS011;46341;51.290;-2.474;2023-05-24T03:00:30;13.73;;;10.32;;
60492;SDS011;46341;51.290;-2.474;2023-05-24T03:02:56;12.18;;;10.57;;
60492;SDS011;46341;51.290;-2.474;2023-05-24T03:05:26;11.18;;;9.98;;
60492;SDS011;46341;51.290;-2.474;2023-05-24T03:07:52;11.15;;;10.00;;
60492;SDS011;46341;51.290;-2.474;2023-05-24T03:10:18;12.05;;;10.45;;
60492;SDS011;46341;51.290;-2.474;2023-05-24T03:12:45;13.02;;;11.05;;
60492;SDS011;46341;51.290;-2.474;2023-05-24T03:15:11;13.55;;;11.00;;
60492;SDS011;46341;51.290;-2.474;2023-05-24T03:17:38;12.45;;;11.07;;
60492;SDS011;46341;51.290;-2.474;2023-05-24T03:20:04;10.95;;;9.85;;
60492;SDS011;46341;51.290;-2.474;2023-05-24T03:22:31;12.80;;;10.53;;
60492;SDS011;46341;51.290;-2.474;2023-05-24T03:24:57;11.82;;;10.27;;
60492;SDS011;46341;51.290;-2.474;2023-05-24T03:27:24;12.77;;;10.25;;
60492;SDS011;46341;51.290;-2.474;2023-05-24T03:29:50;13.20;;;11.38;;
60492;SDS011;46341;51.290;-2.474;2023-05-24T03:32:17;12.50;;;10.50;;
60492;SDS011;46341;51.290;-2.474;2023-05-24T03:34:43;12.18;;;10.82;;
60492;SDS011;46341;51.290;-2.474;2023-05-24T03:37:10;12.93;;;11.52;;
60492;SDS011;46341;51.290;-2.474;2023-05-24T03:39:36;12.23;;;11.00;;
60492;SDS011;46341;51.290;-2.474;2023-05-24T03:42:03;13.25;;;11.40;;
60492;SDS011;46341;51.290;-2.474;2023-05-24T03:44:29;12.27;;;11.07;;
60492;SDS011;46341;51.290;-2.474;2023-05-24T03:46:56;13.05;;;11.13;;
60492;SDS011;46341;51.290;-2.474;2023-05-24T03:49:22;11.40;;;10.30;;
60492;SDS011;46341;51.290;-2.474;2023-05-24T03:51:49;11.48;;;10.07;;
60492;SDS011;46341;51.290;-2.474;2023-05-24T03:54:15;13.85;;;10.40;;
60492;SDS011;46341;51.290;-2.474;2023-05-24T03:56:43;14.75;;;12.18;;
60492;SDS011;46341;51.290;-2.474;2023-05-24T03:59:09;14.32;;;12.82;;
60492;SDS011;46341;51.290;-2.474;2023-05-24T04:01:35;12.70;;;11.40;;
60492;SDS011;46341;51.290;-2.474;2023-05-24T04:04:02;13.48;;;12.07;;
60492;SDS011;46341;51.290;-2.474;2023-05-24T04:06:29;12.87;;;11.47;;
60492;SDS011;46341;51.290;-2.474;2023-05-24T04:08:59;12.57;;;11.32;;
60492;SDS011;46341;51.290;-2.474;2023-05-24T04:11:26;12.85;;;11.13;;
60492;SDS011;46341;51.290;-2.474;2023-05-24T04:13:54;13.40;;;12.00;;
60492;SDS011;46341;51.290;-2.474;2023-05-24T04:16:21;12.57;;;11.23;;
60492;SDS011;46341;51.290;-2.474;2023-05-24T04:18:55;13.93;;;12.00;;
60492;SDS011;46341;51.290;-2.474;2023-05-24T04:21:21;13.57;;;12.25;;
60492;SDS011;46341;51.290;-2.474;2023-05-24T04:23:48;14.32;;;12.68;;
60492;SDS011;46341;51.290;-2.474;2023-05-24T04:26:14;15.38;;;13.05;;
60492;SDS011;46341;51.290;-2.474;2023-05-24T04:28:41;15.05;;;12.75;;
60492;SDS011;46341;51.290;-2.474;2023-05-24T04:31:07;15.43;;;12.98;;
60492;SDS011;46341;51.290;-2.474;2023-05-24T04:33:35;13.63;;;12.23;;
60492;SDS011;46341;51.290;-2.474;2023-05-24T04:36:02;13.38;;;11.95;;
60492;SDS011;46341;51.290;-2.474;2023-05-24T04:38:28;12.52;;;11.25;;
60492;SDS011;46341;51.290;-2.474;2023-05-24T04:40:57;13.10;;;11.73;;
60492;SDS011;46341;51.290;-2.474;2023-05-24T04:43:27;13.27;;;11.45;;
60492;SDS011;46341;51.290;-2.474;2023-05-24T04:45:53;15.07;;;10.90;;
60492;SDS011;46341;51.290;-2.474;2023-05-24T04:48:20;12.73;;;10.93;;
60492;SDS011;46341;51.290;-2.474;2023-05-24T04:50:50;12.52;;;10.75;;
60492;SDS011;46341;51.290;-2.474;2023-05-24T04:53:16;13.00;;;11.38;;
60492;SDS011;46341;51.290;-2.474;2023-05-24T04:55:42;12.73;;;11.32;;
60492;SDS011;46341;51.290;-2.474;2023-05-24T04:58:09;15.40;;;11.30;;
60492;SDS011;46341;51.290;-2.474;2023-05-24T05:00:36;13.43;;;11.55;;
60492;SDS011;46341;51.290;-2.474;2023-05-24T05:03:02;13.00;;;11.43;;
60492;SDS011;46341;51.290;-2.474;2023-05-24T05:05:29;12.25;;;10.98;;
60492;SDS011;46341;51.290;-2.474;2023-05-24T05:07:56;14.27;;;12.57;;
60492;SDS011;46341;51.290;-2.474;2023-05-24T05:10:22;14.13;;;12.13;;
60492;SDS011;46341;51.290;-2.474;2023-05-24T05:12:49;14.38;;;12.00;;
60492;SDS011;46341;51.290;-2.474;2023-05-24T05:15:15;12.57;;;11.10;;
60492;SDS011;46341;51.290;-2.474;2023-05-24T05:17:42;12.48;;;10.88;;
60492;SDS011;46341;51.290;-2.474;2023-05-24T05:20:08;14.93;;;11.60;;
60492;SDS011;46341;51.290;-2.474;2023-05-24T05:22:35;15.85;;;12.43;;
60492;SDS011;46341;51.290;-2.474;2023-05-24T05:25:01;13.13;;;11.63;;
60492;SDS011;46341;51.290;-2.474;2023-05-24T05:27:28;12.65;;;11.18;;
60492;SDS011;46341;51.290;-2.474;2023-05-24T05:29:55;13.70;;;11.43;;
60492;SDS011;46341;51.290;-2.474;2023-05-24T05:32:22;14.05;;;11.30;;
60492;SDS011;46341;51.290;-2.474;2023-05-24T05:34:48;15.60;;;11.60;;
60492;SDS011;46341;51.290;-2.474;2023-05-24T05:37:15;14.63;;;11.05;;
60492;SDS011;46341;51.290;-2.474;2023-05-24T05:39:41;13.40;;;11.43;;
60492;SDS011;46341;51.290;-2.474;2023-05-24T05:42:07;13.20;;;11.50;;
60492;SDS011;46341;51.290;-2.474;2023-05-24T05:44:34;14.75;;;12.13;;
60492;SDS011;46341;51.290;-2.474;2023-05-24T05:47:00;12.35;;;10.50;;
60492;SDS011;46341;51.290;-2.474;2023-05-24T05:49:29;13.50;;;12.13;;
60492;SDS011;46341;51.290;-2.474;2023-05-24T05:51:56;14.00;;;12.52;;
60492;SDS011;46341;51.290;-2.474;2023-05-24T05:54:23;12.82;;;11.35;;
60492;SDS011;46341;51.290;-2.474;2023-05-24T05:56:49;14.13;;;11.57;;
60492;SDS011;46341;51.290;-2.474;2023-05-24T05:59:16;13.68;;;12.13;;
60492;SDS011;46341;51.290;-2.474;2023-05-24T06:01:43;14.65;;;12.30;;
60492;SDS011;46341;51.290;-2.474;2023-05-24T06:04:12;16.08;;;12.88;;
60492;SDS011;46341;51.290;-2.474;2023-05-24T06:06:39;14.68;;;13.00;;
60492;SDS011;46341;51.290;-2.474;2023-05-24T06:09:06;14.02;;;12.40;;
60492;SDS011;46341;51.290;-2.474;2023-05-24T06:11:32;14.57;;;12.63;;
60492;SDS011;46341;51.290;-2.474;2023-05-24T06:13:58;17.58;;;11.55;;
60492;SDS011;46341;51.290;-2.474;2023-05-24T06:16:25;14.80;;;10.50;;
60492;SDS011;46341;51.290;-2.474;2023-05-24T06:18:53;15.02;;;11.02;;
60492;SDS011;46341;51.290;-2.474;2023-05-24T06:21:31;12.25;;;9.82;;
60492;SDS011;46341;51.290;-2.474;2023-05-24T06:23:58;17.48;;;10.57;;
60492;SDS011;46341;51.290;-2.474;2023-05-24T06:26:24;10.67;;;8.60;;
60492;SDS011;46341;51.290;-2.474;2023-05-24T06:28:52;13.57;;;9.70;;
60492;SDS011;46341;51.290;-2.474;2023-05-24T06:31:18;11.80;;;8.95;;
60492;SDS011;46341;51.290;-2.474;2023-05-24T06:33:45;15.27;;;8.60;;
60492;SDS011;46341;51.290;-2.474;2023-05-24T06:36:21;9.57;;;7.90;;
60492;SDS011;46341;51.290;-2.474;2023-05-24T06:38:47;16.27;;;7.70;;
60492;SDS011;46341;51.290;-2.474;2023-05-24T06:41:14;11.82;;;7.68;;
60492;SDS011;46341;51.290;-2.474;2023-05-24T06:43:40;10.10;;;6.20;;
60492;SDS011;46341;51.290;-2.474;2023-05-24T06:46:07;9.73;;;5.28;;
60492;SDS011;46341;51.290;-2.474;2023-05-24T06:48:33;8.93;;;5.55;;
60492;SDS011;46341;51.290;-2.474;2023-05-24T06:51:00;10.43;;;4.15;;
60492;SDS011;46341;51.290;-2.474;2023-05-24T06:53:26;12.48;;;4.25;;
60492;SDS011;46341;51.290;-2.474;2023-05-24T06:55:53;8.52;;;3.83;;
60492;SDS011;46341;51.290;-2.474;2023-05-24T06:58:22;7.72;;;3.70;;
60492;SDS011;46341;51.290;-2.474;2023-05-24T07:00:49;10.00;;;4.05;;
60492;SDS011;46341;51.290;-2.474;2023-05-24T07:03:16;11.73;;;3.50;;
60492;SDS011;46341;51.290;-2.474;2023-05-24T07:05:42;8.35;;;3.97;;
60492;SDS011;46341;51.290;-2.474;2023-05-24T07:08:08;9.90;;;3.88;;
60492;SDS011;46341;51.290;-2.474;2023-05-24T07:10:35;9.05;;;3.50;;
60492;SDS011;46341;51.290;-2.474;2023-05-24T07:13:01;9.30;;;3.85;;
60492;SDS011;46341;51.290;-2.474;2023-05-24T07:15:29;12.85;;;4.07;;
60492;SDS011;46341;51.290;-2.474;2023-05-24T07:17:55;10.10;;;3.65;;
60492;SDS011;46341;51.290;-2.474;2023-05-24T07:20:21;12.48;;;3.33;;
60492;SDS011;46341;51.290;-2.474;2023-05-24T07:22:48;9.98;;;3.92;;
60492;SDS011;46341;51.290;-2.474;2023-05-24T07:25:14;10.90;;;3.95;;
60492;SDS011;46341;51.290;-2.474;2023-05-24T07:27:41;8.80;;;3.90;;
60492;SDS011;46341;51.290;-2.474;2023-05-24T07:30:07;9.00;;;3.67;;
60492;SDS011;46341;51.290;-2.474;2023-05-24T07:32:49;11.25;;;3.92;;
60492;SDS011;46341;51.290;-2.474;2023-05-24T07:35:15;10.67;;;4.13;;
60492;SDS011;46341;51.290;-2.474;2023-05-24T07:37:42;10.90;;;3.47;;
60492;SDS011;46341;51.290;-2.474;2023-05-24T07:40:09;8.00;;;3.72;;
60492;SDS011;46341;51.290;-2.474;2023-05-24T07:42:37;10.45;;;3.97;;
60492;SDS011;46341;51.290;-2.474;2023-05-24T07:45:04;10.20;;;3.60;;
60492;SDS011;46341;51.290;-2.474;2023-05-24T07:47:32;8.57;;;3.90;;
60492;SDS011;46341;51.290;-2.474;2023-05-24T07:49:59;7.38;;;3.75;;
60492;SDS011;46341;51.290;-2.474;2023-05-24T07:52:25;5.70;;;3.30;;
60492;SDS011;46341;51.290;-2.474;2023-05-24T07:54:52;11.60;;;4.00;;
60492;SDS011;46341;51.290;-2.474;2023-05-24T07:57:18;9.65;;;3.95;;
60492;SDS011;46341;51.290;-2.474;2023-05-24T07:59:45;10.98;;;4.07;;
60492;SDS011;46341;51.290;-2.474;2023-05-24T08:02:11;8.50;;;3.67;;
60492;SDS011;46341;51.290;-2.474;2023-05-24T08:04:42;9.70;;;3.40;;
60492;SDS011;46341;51.290;-2.474;2023-05-24T08:07:11;10.48;;;3.75;;
60492;SDS011;46341;51.290;-2.474;2023-05-24T08:09:38;9.82;;;3.83;;
60492;SDS011;46341;51.290;-2.474;2023-05-24T08:12:05;8.43;;;4.05;;
60492;SDS011;46341;51.290;-2.474;2023-05-24T08:14:32;9.63;;;3.70;;
60492;SDS011;46341;51.290;-2.474;2023-05-24T08:16:58;10.65;;;4.15;;
60492;SDS011;46341;51.290;-2.474;2023-05-24T08:19:26;10.52;;;4.03;;
60492;SDS011;46341;51.290;-2.474;2023-05-24T08:21:55;11.68;;;3.83;;
60492;SDS011;46341;51.290;-2.474;2023-05-24T08:24:30;10.05;;;4.35;;
60492;SDS011;46341;51.290;-2.474;2023-05-24T08:29:23;9.60;;;4.60;;
60492;SDS011;46341;51.290;-2.474;2023-05-24T08:31:50;9.60;;;3.95;;
60492;SDS011;46341;51.290;-2.474;2023-05-24T08:34:17;12.35;;;5.03;;
60492;SDS011;46341;51.290;-2.474;2023-05-24T08:36:43;8.63;;;4.13;;
60492;SDS011;46341;51.290;-2.474;2023-05-24T08:39:11;9.68;;;4.53;;
60492;SDS011;46341;51.290;-2.474;2023-05-24T08:41:37;13.63;;;4.68;;
60492;SDS011;46341;51.290;-2.474;2023-05-24T08:44:04;14.50;;;4.33;;
60492;SDS011;46341;51.290;-2.474;2023-05-24T08:46:31;9.30;;;4.43;;
60492;SDS011;46341;51.290;-2.474;2023-05-24T08:48:59;8.90;;;3.85;;
60492;SDS011;46341;51.290;-2.474;2023-05-24T08:51:28;8.38;;;4.35;;
60492;SDS011;46341;51.290;-2.474;2023-05-24T08:53:56;11.30;;;4.00;;
60492;SDS011;46341;51.290;-2.474;2023-05-24T08:56:23;9.30;;;3.65;;
60492;SDS011;46341;51.290;-2.474;2023-05-24T08:58:50;9.10;;;4.05;;
60492;SDS011;46341;51.290;-2.474;2023-05-24T09:01:17;9.18;;;3.90;;
60492;SDS011;46341;51.290;-2.474;2023-05-24T09:03:46;10.43;;;4.22;;
60492;SDS011;46341;51.290;-2.474;2023-05-24T09:06:15;8.48;;;4.25;;
60492;SDS011;46341;51.290;-2.474;2023-05-24T09:08:42;6.90;;;3.97;;
60492;SDS011;46341;51.290;-2.474;2023-05-24T09:11:09;6.95;;;4.20;;
60492;SDS011;46341;51.290;-2.474;2023-05-24T09:13:36;11.00;;;3.90;;
60492;SDS011;46341;51.290;-2.474;2023-05-24T09:18:29;7.20;;;4.15;;
60492;SDS011;46341;51.290;-2.474;2023-05-24T09:20:56;8.25;;;3.95;;
60492;SDS011;46341;51.290;-2.474;2023-05-24T09:23:23;10.40;;;4.68;;
60492;SDS011;46341;51.290;-2.474;2023-05-24T09:25:50;9.25;;;3.95;;
60492;SDS011;46341;51.290;-2.474;2023-05-24T09:28:17;9.90;;;4.47;;
60492;SDS011;46341;51.290;-2.474;2023-05-24T09:30:44;4.97;;;3.38;;
60492;SDS011;46341;51.290;-2.474;2023-05-24T09:33:11;8.73;;;3.85;;
60492;SDS011;46341;51.290;-2.474;2023-05-24T09:35:42;9.18;;;3.90;;
60492;SDS011;46341;51.290;-2.474;2023-05-24T09:38:15;7.07;;;3.72;;
60492;SDS011;46341;51.290;-2.474;2023-05-24T09:40:43;8.75;;;3.20;;
60492;SDS011;46341;51.290;-2.474;2023-05-24T09:43:10;7.57;;;3.50;;
60492;SDS011;46341;51.290;-2.474;2023-05-24T09:45:45;6.90;;;3.25;;
60492;SDS011;46341;51.290;-2.474;2023-05-24T09:48:12;9.02;;;3.50;;
60492;SDS011;46341;51.290;-2.474;2023-05-24T09:50:39;5.82;;;3.25;;
60492;SDS011;46341;51.290;-2.474;2023-05-24T09:53:06;7.60;;;3.95;;
60492;SDS011;46341;51.290;-2.474;2023-05-24T09:55:36;6.75;;;3.53;;
60492;SDS011;46341;51.290;-2.474;2023-05-24T10:00:32;6.75;;;3.55;;
60492;SDS011;46341;51.290;-2.474;2023-05-24T10:03:03;8.45;;;3.50;;
60492;SDS011;46341;51.290;-2.474;2023-05-24T10:05:32;5.72;;;3.20;;
60492;SDS011;46341;51.290;-2.474;2023-05-24T10:07:59;4.95;;;3.15;;
60492;SDS011;46341;51.290;-2.474;2023-05-24T10:10:29;7.72;;;3.30;;
60492;SDS011;46341;51.290;-2.474;2023-05-24T10:12:56;5.78;;;3.13;;
60492;SDS011;46341;51.290;-2.474;2023-05-24T10:15:23;6.82;;;3.33;;
60492;SDS011;46341;51.290;-2.474;2023-05-24T10:17:51;6.85;;;3.67;;
60492;SDS011;46341;51.290;-2.474;2023-05-24T10:20:17;5.15;;;3.40;;
60492;SDS011;46341;51.290;-2.474;2023-05-24T10:22:46;5.53;;;3.80;;
60492;SDS011;46341;51.290;-2.474;2023-05-24T10:25:14;6.25;;;3.38;;
60492;SDS011;46341;51.290;-2.474;2023-05-24T10:27:43;8.45;;;3.88;;
60492;SDS011;46341;51.290;-2.474;2023-05-24T10:30:15;7.10;;;3.15;;
60492;SDS011;46341;51.290;-2.474;2023-05-24T10:32:43;6.47;;;3.50;;
60492;SDS011;46341;51.290;-2.474;2023-05-24T10:35:10;8.48;;;3.70;;
60492;SDS011;46341;51.290;-2.474;2023-05-24T10:37:37;6.38;;;3.20;;
60492;SDS011;46341;51.290;-2.474;2023-05-24T10:40:04;5.90;;;3.42;;
60492;SDS011;46341;51.290;-2.474;2023-05-24T10:42:35;7.07;;;3.50;;
60492;SDS011;46341;51.290;-2.474;2023-05-24T10:47:46;7.30;;;3.38;;
60492;SDS011;46341;51.290;-2.474;2023-05-24T10:50:16;5.63;;;3.47;;
60492;SDS011;46341;51.290;-2.474;2023-05-24T10:52:43;7.00;;;3.58;;
60492;SDS011;46341;51.290;-2.474;2023-05-24T10:55:10;4.50;;;3.22;;
60492;SDS011;46341;51.290;-2.474;2023-05-24T10:57:37;5.88;;;3.92;;
60492;SDS011;46341;51.290;-2.474;2023-05-24T11:03:00;5.90;;;3.75;;
60492;SDS011;46341;51.290;-2.474;2023-05-24T11:06:01;6.72;;;3.50;;
60492;SDS011;46341;51.290;-2.474;2023-05-24T11:08:30;7.00;;;3.53;;
60492;SDS011;46341;51.290;-2.474;2023-05-24T11:11:11;4.72;;;3.40;;
60492;SDS011;46341;51.290;-2.474;2023-05-24T11:13:41;4.38;;;3.08;;
60492;SDS011;46341;51.290;-2.474;2023-05-24T11:16:08;5.78;;;3.28;;
60492;SDS011;46341;51.290;-2.474;2023-05-24T11:18:35;4.13;;;2.90;;
60492;SDS011;46341;51.290;-2.474;2023-05-24T11:21:04;5.28;;;3.25;;
60492;SDS011;46341;51.290;-2.474;2023-05-24T11:23:31;4.93;;;2.92;;
60492;SDS011;46341;51.290;-2.474;2023-05-24T11:26:00;5.88;;;3.15;;
60492;SDS011;46341;51.290;-2.474;2023-05-24T11:28:27;6.35;;;3.70;;
60492;SDS011;46341;51.290;-2.474;2023-05-24T11:30:54;5.22;;;3.60;;
60492;SDS011;46341;51.290;-2.474;2023-05-24T11:33:22;5.32;;;3.35;;
60492;SDS011;46341;51.290;-2.474;2023-05-24T11:35:49;5.00;;;3.15;;
60492;SDS011;46341;51.290;-2.474;2023-05-24T11:38:16;7.78;;;3.25;;
60492;SDS011;46341;51.290;-2.474;2023-05-24T11:40:46;4.97;;;3.00;;
60492;SDS011;46341;51.290;-2.474;2023-05-24T11:43:13;2.95;;;2.30;;
60492;SDS011;46341;51.290;-2.474;2023-05-24T11:45:43;4.07;;;3.00;;
60492;SDS011;46341;51.290;-2.474;2023-05-24T11:48:09;4.57;;;3.00;;
60492;SDS011;46341;51.290;-2.474;2023-05-24T11:50:37;4.15;;;2.97;;
60492;SDS011;46341;51.290;-2.474;2023-05-24T11:53:16;4.75;;;2.78;;
60492;SDS011;46341;51.290;-2.474;2023-05-24T11:55:43;5.03;;;2.95;;
60492;SDS011;46341;51.290;-2.474;2023-05-24T11:58:13;5.30;;;2.85;;
60492;SDS011;46341;51.290;-2.474;2023-05-24T12:00:43;3.50;;;2.55;;
60492;SDS011;46341;51.290;-2.474;2023-05-24T12:03:10;6.50;;;3.03;;
60492;SDS011;46341;51.290;-2.474;2023-05-24T12:05:37;9.65;;;3.70;;
60492;SDS011;46341;51.290;-2.474;2023-05-24T12:08:05;5.70;;;2.55;;
60492;SDS011;46341;51.290;-2.474;2023-05-24T12:10:32;5.13;;;2.95;;
60492;SDS011;46341;51.290;-2.474;2023-05-24T12:12:59;4.43;;;2.90;;
60492;SDS011;46341;51.290;-2.474;2023-05-24T12:15:26;10.18;;;3.83;;
60492;SDS011;46341;51.290;-2.474;2023-05-24T12:17:53;4.95;;;2.70;;
60492;SDS011;46341;51.290;-2.474;2023-05-24T12:20:19;4.00;;;2.78;;
60492;SDS011;46341;51.290;-2.474;2023-05-24T12:22:47;4.68;;;2.80;;
60492;SDS011;46341;51.290;-2.474;2023-05-24T12:25:16;3.53;;;2.60;;
60492;SDS011;46341;51.290;-2.474;2023-05-24T12:27:44;4.20;;;2.53;;
60492;SDS011;46341;51.290;-2.474;2023-05-24T12:30:14;4.70;;;2.63;;
60492;SDS011;46341;51.290;-2.474;2023-05-24T12:32:46;3.42;;;2.70;;
60492;SDS011;46341;51.290;-2.474;2023-05-24T12:35:13;5.13;;;2.50;;
60492;SDS011;46341;51.290;-2.474;2023-05-24T12:37:42;5.03;;;2.78;;
60492;SDS011;46341;51.290;-2.474;2023-05-24T12:40:15;4.07;;;3.00;;
60492;SDS011;46341;51.290;-2.474;2023-05-24T12:42:49;3.70;;;2.83;;
60492;SDS011;46341;51.290;-2.474;2023-05-24T12:45:16;5.32;;;2.45;;
60492;SDS011;46341;51.290;-2.474;2023-05-24T12:47:48;4.28;;;2.80;;
60492;SDS011;46341;51.290;-2.474;2023-05-24T12:50:15;5.90;;;2.80;;
60492;SDS011;46341;51.290;-2.474;2023-05-24T12:52:42;4.25;;;2.55;;
60492;SDS011;46341;51.290;-2.474;2023-05-24T12:55:12;4.40;;;2.58;;
60492;SDS011;46341;51.290;-2.474;2023-05-24T12:57:38;5.07;;;2.90;;
60492;SDS011;46341;51.290;-2.474;2023-05-24T13:00:06;4.18;;;2.80;;
60492;SDS011;46341;51.290;-2.474;2023-05-24T13:02:33;5.20;;;2.67;;
60492;SDS011;46341;51.290;-2.474;2023-05-24T13:04:59;4.13;;;2.78;;
60492;SDS011;46341;51.290;-2.474;2023-05-24T13:07:26;3.70;;;2.72;;
60492;SDS011;46341;51.290;-2.474;2023-05-24T13:09:53;5.15;;;2.63;;
60492;SDS011;46341;51.290;-2.474;2023-05-24T13:12:19;4.00;;;2.88;;
60492;SDS011;46341;51.290;-2.474;2023-05-24T13:14:46;4.70;;;2.83;;
60492;SDS011;46341;51.290;-2.474;2023-05-24T13:17:12;4.38;;;2.78;;
60492;SDS011;46341;51.290;-2.474;2023-05-24T13:19:41;5.53;;;3.00;;
60492;SDS011;46341;51.290;-2.474;2023-05-24T13:22:07;4.78;;;2.78;;
60492;SDS011;46341;51.290;-2.474;2023-05-24T13:24:34;3.60;;;2.55;;
60492;SDS011;46341;51.290;-2.474;2023-05-24T13:27:01;3.95;;;2.90;;
60492;SDS011;46341;51.290;-2.474;2023-05-24T13:29:28;6.22;;;2.88;;
60492;SDS011;46341;51.290;-2.474;2023-05-24T13:32:07;3.92;;;2.50;;
60492;SDS011;46341;51.290;-2.474;2023-05-24T13:34:34;3.67;;;2.58;;
60492;SDS011;46341;51.290;-2.474;2023-05-24T13:37:01;3.03;;;2.72;;
60492;SDS011;46341;51.290;-2.474;2023-05-24T13:39:28;4.60;;;3.08;;
60492;SDS011;46341;51.290;-2.474;2023-05-24T13:41:54;4.97;;;2.90;;
60492;SDS011;46341;51.290;-2.474;2023-05-24T13:44:21;3.22;;;2.50;;
60492;SDS011;46341;51.290;-2.474;2023-05-24T13:46:47;4.15;;;2.60;;
60492;SDS011;46341;51.290;-2.474;2023-05-24T13:49:14;3.65;;;2.67;;
60492;SDS011;46341;51.290;-2.474;2023-05-24T13:51:41;4.93;;;2.60;;
60492;SDS011;46341;51.290;-2.474;2023-05-24T13:54:07;4.20;;;2.53;;
60492;SDS011;46341;51.290;-2.474;2023-05-24T13:56:34;5.53;;;2.78;;
60492;SDS011;46341;51.290;-2.474;2023-05-24T13:59:01;4.38;;;2.65;;
60492;SDS011;46341;51.290;-2.474;2023-05-24T14:01:29;3.83;;;2.80;;
60492;SDS011;46341;51.290;-2.474;2023-05-24T14:03:55;4.40;;;3.08;;
60492;SDS011;46341;51.290;-2.474;2023-05-24T14:06:22;5.53;;;3.00;;
60492;SDS011;46341;51.290;-2.474;2023-05-24T14:08:48;3.20;;;2.45;;
60492;SDS011;46341;51.290;-2.474;2023-05-24T14:11:15;4.03;;;3.05;;
60492;SDS011;46341;51.290;-2.474;2023-05-24T14:13:42;4.15;;;2.90;;
60492;SDS011;46341;51.290;-2.474;2023-05-24T14:16:28;5.53;;;3.13;;
60492;SDS011;46341;51.290;-2.474;2023-05-24T14:18:55;6.22;;;3.00;;
60492;SDS011;46341;51.290;-2.474;2023-05-24T14:21:21;4.60;;;3.08;;
60492;SDS011;46341;51.290;-2.474;2023-05-24T14:23:48;5.20;;;2.90;;
60492;SDS011;46341;51.290;-2.474;2023-05-24T14:26:15;3.97;;;2.72;;
60492;SDS011;46341;51.290;-2.474;2023-05-24T14:28:42;4.05;;;2.63;;
60492;SDS011;46341;51.290;-2.474;2023-05-24T14:31:08;5.72;;;3.08;;
60492;SDS011;46341;51.290;-2.474;2023-05-24T14:33:34;4.50;;;2.85;;
60492;SDS011;46341;51.290;-2.474;2023-05-24T14:36:02;3.58;;;2.63;;
60492;SDS011;46341;51.290;-2.474;2023-05-24T14:38:29;3.92;;;3.13;;
60492;SDS011;46341;51.290;-2.474;2023-05-24T14:40:56;4.13;;;2.88;;
60492;SDS011;46341;51.290;-2.474;2023-05-24T14:43:24;4.20;;;2.80;;
60492;SDS011;46341;51.290;-2.474;2023-05-24T14:45:51;3.60;;;2.55;;
60492;SDS011;46341;51.290;-2.474;2023-05-24T14:48:17;3.72;;;2.75;;
60492;SDS011;46341;51.290;-2.474;2023-05-24T14:50:44;5.03;;;3.10;;
60492;SDS011;46341;51.290;-2.474;2023-05-24T14:53:10;5.25;;;2.88;;
60492;SDS011;46341;51.290;-2.474;2023-05-24T14:55:38;3.25;;;2.80;;